sensor_id;sensor_type;location;lat;lon;timestamp;P1;durP1;ratioP1;P2;durP2;ratioP2
11608;SDS011;5860;52.018;8.536;2022-10-17T00:02:23;10.50;;;7.80;;
11608;SDS011;5860;52.018;8.536;2022-10-17T00:04:50;10.50;;;8.90;;
11608;SDS011;5860;52.018;8.536;2022-10-17T00:07:17;12.83;;;9.17;;
11608;SDS011;5860;52.018;8.536;2022-10-17T00:09:43;10.83;;;8.80;;
11608;SDS011;5860;52.018;8.536;2022-10-17T00:12:10;9.73;;;8.50;;
11608;SDS011;5860;52.018;8.536;2022-10-17T00:14:37;11.47;;;8.80;;
11608;SDS011;5860;52.018;8.536;2022-10-17T00:17:04;12.20;;;8.90;;
11608;SDS011;5860;52.018;8.536;2022-10-17T00:19:31;13.30;;;10.03;;
11608;SDS011;5860;52.018;8.536;2022-10-17T00:21:58;41.90;;;29.93;;
11608;SDS011;5860;52.018;8.536;2022-10-17T00:24:25;13.27;;;10.77;;
11608;SDS011;5860;52.018;8.536;2022-10-17T00:26:52;13.17;;;10.13;;
11608;SDS011;5860;52.018;8.536;2022-10-17T00:29:18;12.83;;;9.83;;
11608;SDS011;5860;52.018;8.536;2022-10-17T00:31:45;14.57;;;10.83;;
11608;SDS011;5860;52.018;8.536;2022-10-17T00:34:12;11.83;;;9.73;;
11608;SDS011;5860;52.018;8.536;2022-10-17T00:36:39;15.07;;;10.93;;
11608;SDS011;5860;52.018;8.536;2022-10-17T00:39:06;13.63;;;9.90;;
11608;SDS011;5860;52.018;8.536;2022-10-17T00:41:33;11.40;;;10.10;;
11608;SDS011;5860;52.018;8.536;2022-10-17T00:44:04;14.10;;;10.53;;
11608;SDS011;5860;52.018;8.536;2022-10-17T00:46:34;14.27;;;11.03;;
11608;SDS011;5860;52.018;8.536;2022-10-17T00:49:03;13.13;;;10.60;;
11608;SDS011;5860;52.018;8.536;2022-10-17T00:51:37;15.53;;;10.50;;
11608;SDS011;5860;52.018;8.536;2022-10-17T00:54:08;13.93;;;11.23;;
11608;SDS011;5860;52.018;8.536;2022-10-17T00:56:36;13.70;;;10.57;;
11608;SDS011;5860;52.018;8.536;2022-10-17T00:59:08;14.20;;;10.20;;
11608;SDS011;5860;52.018;8.536;2022-10-17T01:01:38;11.97;;;10.67;;
11608;SDS011;5860;52.018;8.536;2022-10-17T01:04:06;15.43;;;10.93;;
11608;SDS011;5860;52.018;8.536;2022-10-17T01:06:33;14.43;;;10.80;;
11608;SDS011;5860;52.018;8.536;2022-10-17T01:09:00;12.50;;;10.87;;
11608;SDS011;5860;52.018;8.536;2022-10-17T01:11:38;16.90;;;13.23;;
11608;SDS011;5860;52.018;8.536;2022-10-17T01:14:32;18.40;;;12.13;;
11608;SDS011;5860;52.018;8.536;2022-10-17T01:17:35;18.03;;;13.70;;
11608;SDS011;5860;52.018;8.536;2022-10-17T01:23:26;19.00;;;13.60;;
11608;SDS011;5860;52.018;8.536;2022-10-17T01:26:20;18.27;;;12.70;;
11608;SDS011;5860;52.018;8.536;2022-10-17T01:31:31;18.13;;;14.00;;
11608;SDS011;5860;52.018;8.536;2022-10-17T01:34:13;17.03;;;13.80;;
11608;SDS011;5860;52.018;8.536;2022-10-17T01:42:15;25.50;;;15.43;;
11608;SDS011;5860;52.018;8.536;2022-10-17T01:45:05;19.73;;;14.87;;
11608;SDS011;5860;52.018;8.536;2022-10-17T01:47:39;24.37;;;15.90;;
11608;SDS011;5860;52.018;8.536;2022-10-17T01:50:09;24.63;;;17.53;;
11608;SDS011;5860;52.018;8.536;2022-10-17T01:52:41;22.97;;;15.37;;
11608;SDS011;5860;52.018;8.536;2022-10-17T01:55:33;24.30;;;15.70;;
11608;SDS011;5860;52.018;8.536;2022-10-17T01:58:16;21.67;;;16.57;;
11608;SDS011;5860;52.018;8.536;2022-10-17T02:00:52;24.40;;;14.90;;
11608;SDS011;5860;52.018;8.536;2022-10-17T02:03:21;23.03;;;16.27;;
11608;SDS011;5860;52.018;8.536;2022-10-17T02:05:49;21.87;;;16.00;;
11608;SDS011;5860;52.018;8.536;2022-10-17T02:08:27;22.33;;;16.07;;
11608;SDS011;5860;52.018;8.536;2022-10-17T02:11:05;22.13;;;15.87;;
11608;SDS011;5860;52.018;8.536;2022-10-17T02:24:17;19.10;;;14.60;;
11608;SDS011;5860;52.018;8.536;2022-10-17T02:27:02;17.40;;;14.70;;
11608;SDS011;5860;52.018;8.536;2022-10-17T02:29:30;23.03;;;17.03;;
11608;SDS011;5860;52.018;8.536;2022-10-17T02:32:02;25.87;;;16.73;;
11608;SDS011;5860;52.018;8.536;2022-10-17T02:34:35;24.97;;;15.97;;
11608;SDS011;5860;52.018;8.536;2022-10-17T02:37:09;24.83;;;15.57;;
11608;SDS011;5860;52.018;8.536;2022-10-17T02:39:38;22.03;;;15.47;;
11608;SDS011;5860;52.018;8.536;2022-10-17T02:42:06;23.30;;;16.23;;
11608;SDS011;5860;52.018;8.536;2022-10-17T02:44:36;22.93;;;16.00;;
11608;SDS011;5860;52.018;8.536;2022-10-17T02:49:39;23.07;;;15.23;;
11608;SDS011;5860;52.018;8.536;2022-10-17T02:52:16;20.60;;;15.23;;
11608;SDS011;5860;52.018;8.536;2022-10-17T02:54:57;25.80;;;19.37;;
11608;SDS011;5860;52.018;8.536;2022-10-17T02:57:46;21.83;;;16.53;;
11608;SDS011;5860;52.018;8.536;2022-10-17T03:00:19;20.87;;;15.23;;
11608;SDS011;5860;52.018;8.536;2022-10-17T03:02:49;23.00;;;15.87;;
11608;SDS011;5860;52.018;8.536;2022-10-17T03:05:21;23.73;;;14.63;;
11608;SDS011;5860;52.018;8.536;2022-10-17T03:07:49;23.87;;;14.63;;
11608;SDS011;5860;52.018;8.536;2022-10-17T03:10:17;17.43;;;14.53;;
11608;SDS011;5860;52.018;8.536;2022-10-17T03:12:45;19.83;;;14.70;;
11608;SDS011;5860;52.018;8.536;2022-10-17T03:15:12;20.63;;;14.83;;
11608;SDS011;5860;52.018;8.536;2022-10-17T03:17:39;19.33;;;12.80;;
11608;SDS011;5860;52.018;8.536;2022-10-17T03:20:06;17.93;;;11.40;;
11608;SDS011;5860;52.018;8.536;2022-10-17T03:22:33;16.03;;;12.27;;
11608;SDS011;5860;52.018;8.536;2022-10-17T03:25:00;18.47;;;12.33;;
11608;SDS011;5860;52.018;8.536;2022-10-17T03:27:26;16.30;;;12.70;;
11608;SDS011;5860;52.018;8.536;2022-10-17T03:29:53;18.57;;;12.27;;
11608;SDS011;5860;52.018;8.536;2022-10-17T03:32:20;12.10;;;10.63;;
11608;SDS011;5860;52.018;8.536;2022-10-17T03:34:47;15.87;;;11.87;;
11608;SDS011;5860;52.018;8.536;2022-10-17T03:37:14;13.27;;;10.40;;
11608;SDS011;5860;52.018;8.536;2022-10-17T03:39:41;13.67;;;10.63;;
11608;SDS011;5860;52.018;8.536;2022-10-17T03:42:07;14.17;;;11.07;;
11608;SDS011;5860;52.018;8.536;2022-10-17T03:44:34;12.30;;;9.60;;
11608;SDS011;5860;52.018;8.536;2022-10-17T03:47:01;10.77;;;8.97;;
11608;SDS011;5860;52.018;8.536;2022-10-17T03:49:28;14.87;;;9.70;;
11608;SDS011;5860;52.018;8.536;2022-10-17T03:51:55;15.03;;;9.13;;
11608;SDS011;5860;52.018;8.536;2022-10-17T03:54:21;17.00;;;8.33;;
11608;SDS011;5860;52.018;8.536;2022-10-17T03:56:48;9.13;;;8.13;;
11608;SDS011;5860;52.018;8.536;2022-10-17T03:59:15;8.87;;;7.57;;
11608;SDS011;5860;52.018;8.536;2022-10-17T04:01:43;9.07;;;6.70;;
11608;SDS011;5860;52.018;8.536;2022-10-17T04:04:10;7.23;;;6.53;;
11608;SDS011;5860;52.018;8.536;2022-10-17T04:06:37;7.57;;;6.40;;
11608;SDS011;5860;52.018;8.536;2022-10-17T04:09:05;8.10;;;6.20;;
11608;SDS011;5860;52.018;8.536;2022-10-17T04:11:32;10.13;;;5.70;;
11608;SDS011;5860;52.018;8.536;2022-10-17T04:13:59;8.60;;;5.60;;
11608;SDS011;5860;52.018;8.536;2022-10-17T04:16:26;6.03;;;5.50;;
11608;SDS011;5860;52.018;8.536;2022-10-17T04:18:54;5.97;;;5.37;;
11608;SDS011;5860;52.018;8.536;2022-10-17T04:21:22;6.23;;;5.30;;
11608;SDS011;5860;52.018;8.536;2022-10-17T04:23:54;5.67;;;4.73;;
11608;SDS011;5860;52.018;8.536;2022-10-17T04:26:22;5.33;;;4.77;;
11608;SDS011;5860;52.018;8.536;2022-10-17T04:28:49;5.53;;;4.53;;
11608;SDS011;5860;52.018;8.536;2022-10-17T04:31:16;6.30;;;4.90;;
11608;SDS011;5860;52.018;8.536;2022-10-17T04:33:47;6.17;;;4.73;;
11608;SDS011;5860;52.018;8.536;2022-10-17T04:36:16;7.43;;;4.60;;
11608;SDS011;5860;52.018;8.536;2022-10-17T04:38:44;8.63;;;4.83;;
11608;SDS011;5860;52.018;8.536;2022-10-17T04:41:12;8.87;;;5.00;;
11608;SDS011;5860;52.018;8.536;2022-10-17T04:43:41;9.87;;;4.80;;
11608;SDS011;5860;52.018;8.536;2022-10-17T04:46:14;5.27;;;4.70;;
11608;SDS011;5860;52.018;8.536;2022-10-17T04:48:41;6.40;;;4.60;;
11608;SDS011;5860;52.018;8.536;2022-10-17T04:51:09;8.67;;;4.63;;
11608;SDS011;5860;52.018;8.536;2022-10-17T04:53:39;7.10;;;4.33;;
11608;SDS011;5860;52.018;8.536;2022-10-17T04:56:13;5.80;;;4.90;;
11608;SDS011;5860;52.018;8.536;2022-10-17T04:58:42;8.80;;;5.27;;
11608;SDS011;5860;52.018;8.536;2022-10-17T05:01:11;8.27;;;5.10;;
11608;SDS011;5860;52.018;8.536;2022-10-17T05:03:39;9.27;;;5.43;;
11608;SDS011;5860;52.018;8.536;2022-10-17T05:06:07;5.10;;;4.60;;
11608;SDS011;5860;52.018;8.536;2022-10-17T05:08:38;9.13;;;4.73;;
11608;SDS011;5860;52.018;8.536;2022-10-17T05:11:14;4.97;;;4.57;;
11608;SDS011;5860;52.018;8.536;2022-10-17T05:13:42;5.83;;;4.67;;
11608;SDS011;5860;52.018;8.536;2022-10-17T05:16:08;6.33;;;5.00;;
11608;SDS011;5860;52.018;8.536;2022-10-17T05:18:36;7.93;;;4.97;;
11608;SDS011;5860;52.018;8.536;2022-10-17T05:21:02;6.67;;;5.10;;
11608;SDS011;5860;52.018;8.536;2022-10-17T05:23:29;8.57;;;5.33;;
11608;SDS011;5860;52.018;8.536;2022-10-17T05:25:56;7.67;;;5.27;;
11608;SDS011;5860;52.018;8.536;2022-10-17T05:28:23;10.53;;;4.90;;
11608;SDS011;5860;52.018;8.536;2022-10-17T05:30:50;7.03;;;4.97;;
11608;SDS011;5860;52.018;8.536;2022-10-17T05:33:17;9.67;;;6.37;;
11608;SDS011;5860;52.018;8.536;2022-10-17T05:35:44;5.47;;;4.80;;
11608;SDS011;5860;52.018;8.536;2022-10-17T05:38:11;8.47;;;4.80;;
11608;SDS011;5860;52.018;8.536;2022-10-17T05:40:38;10.73;;;5.40;;
11608;SDS011;5860;52.018;8.536;2022-10-17T05:43:05;5.77;;;5.20;;
11608;SDS011;5860;52.018;8.536;2022-10-17T05:45:31;6.57;;;4.27;;
11608;SDS011;5860;52.018;8.536;2022-10-17T05:47:58;7.50;;;5.13;;
11608;SDS011;5860;52.018;8.536;2022-10-17T05:50:25;5.30;;;4.50;;
11608;SDS011;5860;52.018;8.536;2022-10-17T05:52:53;9.70;;;5.10;;
11608;SDS011;5860;52.018;8.536;2022-10-17T05:55:20;6.63;;;4.63;;
11608;SDS011;5860;52.018;8.536;2022-10-17T05:57:48;10.57;;;5.10;;
11608;SDS011;5860;52.018;8.536;2022-10-17T06:00:15;8.53;;;5.20;;
11608;SDS011;5860;52.018;8.536;2022-10-17T06:02:42;10.77;;;5.20;;
11608;SDS011;5860;52.018;8.536;2022-10-17T06:05:11;7.30;;;5.03;;
11608;SDS011;5860;52.018;8.536;2022-10-17T06:07:38;7.87;;;5.13;;
11608;SDS011;5860;52.018;8.536;2022-10-17T06:10:05;8.50;;;5.00;;
11608;SDS011;5860;52.018;8.536;2022-10-17T06:12:33;10.80;;;5.00;;
11608;SDS011;5860;52.018;8.536;2022-10-17T06:14:59;6.90;;;5.00;;
11608;SDS011;5860;52.018;8.536;2022-10-17T06:17:26;6.10;;;4.80;;
11608;SDS011;5860;52.018;8.536;2022-10-17T06:19:54;6.30;;;4.93;;
11608;SDS011;5860;52.018;8.536;2022-10-17T06:22:22;6.10;;;4.27;;
11608;SDS011;5860;52.018;8.536;2022-10-17T06:24:49;5.57;;;4.63;;
11608;SDS011;5860;52.018;8.536;2022-10-17T06:27:18;5.47;;;4.57;;
11608;SDS011;5860;52.018;8.536;2022-10-17T06:29:46;6.17;;;4.90;;
11608;SDS011;5860;52.018;8.536;2022-10-17T06:32:13;5.60;;;4.20;;
11608;SDS011;5860;52.018;8.536;2022-10-17T06:34:51;7.27;;;4.43;;
11608;SDS011;5860;52.018;8.536;2022-10-17T06:37:18;6.60;;;4.43;;
11608;SDS011;5860;52.018;8.536;2022-10-17T06:39:45;5.60;;;4.60;;
11608;SDS011;5860;52.018;8.536;2022-10-17T06:42:12;4.93;;;4.40;;
11608;SDS011;5860;52.018;8.536;2022-10-17T06:44:39;6.60;;;3.97;;
11608;SDS011;5860;52.018;8.536;2022-10-17T06:47:06;6.10;;;4.30;;
11608;SDS011;5860;52.018;8.536;2022-10-17T06:49:34;4.93;;;3.60;;
11608;SDS011;5860;52.018;8.536;2022-10-17T06:52:01;4.23;;;3.63;;
11608;SDS011;5860;52.018;8.536;2022-10-17T06:54:28;7.23;;;4.47;;
11608;SDS011;5860;52.018;8.536;2022-10-17T06:56:55;5.37;;;4.03;;
11608;SDS011;5860;52.018;8.536;2022-10-17T06:59:21;5.10;;;3.40;;
11608;SDS011;5860;52.018;8.536;2022-10-17T07:01:48;7.50;;;3.77;;
11608;SDS011;5860;52.018;8.536;2022-10-17T07:04:17;4.57;;;3.97;;
11608;SDS011;5860;52.018;8.536;2022-10-17T07:06:44;4.97;;;3.40;;
11608;SDS011;5860;52.018;8.536;2022-10-17T07:09:11;6.93;;;3.80;;
11608;SDS011;5860;52.018;8.536;2022-10-17T07:11:38;7.07;;;3.97;;
11608;SDS011;5860;52.018;8.536;2022-10-17T07:14:05;10.20;;;4.47;;
11608;SDS011;5860;52.018;8.536;2022-10-17T07:16:32;5.90;;;3.53;;
11608;SDS011;5860;52.018;8.536;2022-10-17T07:18:59;8.43;;;3.70;;
11608;SDS011;5860;52.018;8.536;2022-10-17T07:21:26;5.50;;;3.03;;
11608;SDS011;5860;52.018;8.536;2022-10-17T07:23:53;6.70;;;3.20;;
11608;SDS011;5860;52.018;8.536;2022-10-17T07:26:19;5.03;;;3.17;;
11608;SDS011;5860;52.018;8.536;2022-10-17T07:28:46;6.53;;;3.57;;
11608;SDS011;5860;52.018;8.536;2022-10-17T07:31:18;4.17;;;3.63;;
11608;SDS011;5860;52.018;8.536;2022-10-17T07:33:47;5.53;;;3.07;;
11608;SDS011;5860;52.018;8.536;2022-10-17T07:36:14;8.40;;;3.40;;
11608;SDS011;5860;52.018;8.536;2022-10-17T07:38:42;5.53;;;3.37;;
11608;SDS011;5860;52.018;8.536;2022-10-17T07:41:09;7.72;;;2.85;;
11608;SDS011;5860;52.018;8.536;2022-10-17T07:43:44;5.28;;;3.38;;
11608;SDS011;5860;52.018;8.536;2022-10-17T07:46:11;3.35;;;2.75;;
11608;SDS011;5860;52.018;8.536;2022-10-17T07:48:38;9.98;;;3.30;;
11608;SDS011;5860;52.018;8.536;2022-10-17T07:51:07;4.05;;;2.83;;
11608;SDS011;5860;52.018;8.536;2022-10-17T07:53:35;6.43;;;3.17;;
11608;SDS011;5860;52.018;8.536;2022-10-17T07:56:06;6.10;;;2.97;;
11608;SDS011;5860;52.018;8.536;2022-10-17T07:58:34;4.82;;;3.50;;
11608;SDS011;5860;52.018;8.536;2022-10-17T08:01:02;5.87;;;3.33;;
11608;SDS011;5860;52.018;8.536;2022-10-17T08:03:34;6.47;;;2.90;;
11608;SDS011;5860;52.018;8.536;2022-10-17T08:06:02;4.93;;;3.45;;
11608;SDS011;5860;52.018;8.536;2022-10-17T08:08:29;6.63;;;3.20;;
11608;SDS011;5860;52.018;8.536;2022-10-17T08:11:00;5.45;;;3.35;;
11608;SDS011;5860;52.018;8.536;2022-10-17T08:13:28;4.40;;;3.00;;
11608;SDS011;5860;52.018;8.536;2022-10-17T08:16:02;4.07;;;2.85;;
11608;SDS011;5860;52.018;8.536;2022-10-17T08:18:32;6.80;;;3.00;;
11608;SDS011;5860;52.018;8.536;2022-10-17T08:21:00;3.05;;;2.75;;
11608;SDS011;5860;52.018;8.536;2022-10-17T08:23:28;4.35;;;3.08;;
11608;SDS011;5860;52.018;8.536;2022-10-17T08:25:57;4.18;;;2.95;;
11608;SDS011;5860;52.018;8.536;2022-10-17T08:28:25;6.82;;;2.47;;
11608;SDS011;5860;52.018;8.536;2022-10-17T08:30:52;6.75;;;2.50;;
11608;SDS011;5860;52.018;8.536;2022-10-17T08:33:26;6.13;;;3.00;;
11608;SDS011;5860;52.018;8.536;2022-10-17T08:35:53;3.90;;;2.60;;
11608;SDS011;5860;52.018;8.536;2022-10-17T08:38:20;8.80;;;3.00;;
11608;SDS011;5860;52.018;8.536;2022-10-17T08:40:50;5.50;;;2.80;;
11608;SDS011;5860;52.018;8.536;2022-10-17T08:46:27;8.23;;;2.90;;
11608;SDS011;5860;52.018;8.536;2022-10-17T08:49:01;6.57;;;2.97;;
11608;SDS011;5860;52.018;8.536;2022-10-17T08:51:36;5.82;;;2.60;;
11608;SDS011;5860;52.018;8.536;2022-10-17T08:54:15;7.20;;;2.70;;
11608;SDS011;5860;52.018;8.536;2022-10-17T08:56:52;6.07;;;2.83;;
11608;SDS011;5860;52.018;8.536;2022-10-17T08:59:22;7.22;;;2.67;;
11608;SDS011;5860;52.018;8.536;2022-10-17T09:02:03;3.53;;;2.65;;
11608;SDS011;5860;52.018;8.536;2022-10-17T09:10:20;5.57;;;2.50;;
11608;SDS011;5860;52.018;8.536;2022-10-17T09:18:45;4.57;;;2.63;;
11608;SDS011;5860;52.018;8.536;2022-10-17T09:21:24;3.50;;;2.38;;
11608;SDS011;5860;52.018;8.536;2022-10-17T09:23:56;5.90;;;2.92;;
11608;SDS011;5860;52.018;8.536;2022-10-17T09:26:35;3.53;;;2.28;;
11608;SDS011;5860;52.018;8.536;2022-10-17T09:29:25;3.30;;;2.55;;
11608;SDS011;5860;52.018;8.536;2022-10-17T09:32:01;4.75;;;3.10;;
11608;SDS011;5860;52.018;8.536;2022-10-17T09:34:34;5.40;;;2.20;;
11608;SDS011;5860;52.018;8.536;2022-10-17T09:37:00;5.40;;;2.50;;
11608;SDS011;5860;52.018;8.536;2022-10-17T09:39:28;4.93;;;2.47;;
11608;SDS011;5860;52.018;8.536;2022-10-17T09:41:58;2.47;;;2.28;;
11608;SDS011;5860;52.018;8.536;2022-10-17T09:49:44;9.98;;;2.47;;
11608;SDS011;5860;52.018;8.536;2022-10-17T09:54:43;3.08;;;2.13;;
11608;SDS011;5860;52.018;8.536;2022-10-17T09:57:16;4.32;;;2.25;;
11608;SDS011;5860;52.018;8.536;2022-10-17T09:59:54;4.90;;;2.50;;
11608;SDS011;5860;52.018;8.536;2022-10-17T10:02:28;4.50;;;2.60;;
11608;SDS011;5860;52.018;8.536;2022-10-17T10:07:40;4.32;;;2.65;;
11608;SDS011;5860;52.018;8.536;2022-10-17T10:10:24;8.07;;;2.47;;
11608;SDS011;5860;52.018;8.536;2022-10-17T10:13:09;3.45;;;2.65;;
11608;SDS011;5860;52.018;8.536;2022-10-17T10:15:43;3.83;;;2.50;;
11608;SDS011;5860;52.018;8.536;2022-10-17T10:21:05;3.85;;;2.65;;
11608;SDS011;5860;52.018;8.536;2022-10-17T10:23:37;6.28;;;3.00;;
11608;SDS011;5860;52.018;8.536;2022-10-17T10:26:22;3.38;;;2.50;;
11608;SDS011;5860;52.018;8.536;2022-10-17T10:28:58;6.05;;;2.75;;
11608;SDS011;5860;52.018;8.536;2022-10-17T10:31:29;5.93;;;2.80;;
11608;SDS011;5860;52.018;8.536;2022-10-17T10:34:19;4.03;;;2.58;;
11608;SDS011;5860;52.018;8.536;2022-10-17T10:36:56;3.80;;;2.60;;
11608;SDS011;5860;52.018;8.536;2022-10-17T10:42:05;4.80;;;3.00;;
11608;SDS011;5860;52.018;8.536;2022-10-17T10:44:35;3.72;;;2.80;;
11608;SDS011;5860;52.018;8.536;2022-10-17T10:47:24;4.47;;;3.22;;
11608;SDS011;5860;52.018;8.536;2022-10-17T10:50:08;5.18;;;3.17;;
11608;SDS011;5860;52.018;8.536;2022-10-17T10:55:30;17.08;;;4.00;;
11608;SDS011;5860;52.018;8.536;2022-10-17T10:58:46;4.30;;;3.28;;
11608;SDS011;5860;52.018;8.536;2022-10-17T11:01:17;5.63;;;2.95;;
11608;SDS011;5860;52.018;8.536;2022-10-17T11:06:47;5.68;;;3.13;;
11608;SDS011;5860;52.018;8.536;2022-10-17T11:12:27;4.25;;;2.50;;
11608;SDS011;5860;52.018;8.536;2022-10-17T11:15:19;9.75;;;2.63;;
11608;SDS011;5860;52.018;8.536;2022-10-17T11:23:09;4.60;;;3.08;;
11608;SDS011;5860;52.018;8.536;2022-10-17T11:25:50;5.63;;;3.13;;
11608;SDS011;5860;52.018;8.536;2022-10-17T11:28:20;5.32;;;3.15;;
11608;SDS011;5860;52.018;8.536;2022-10-17T11:33:28;4.90;;;3.60;;
11608;SDS011;5860;52.018;8.536;2022-10-17T11:36:07;7.00;;;2.83;;
11608;SDS011;5860;52.018;8.536;2022-10-17T11:38:39;7.60;;;3.70;;
11608;SDS011;5860;52.018;8.536;2022-10-17T11:41:21;4.90;;;3.08;;
11608;SDS011;5860;52.018;8.536;2022-10-17T11:43:58;8.48;;;3.10;;
11608;SDS011;5860;52.018;8.536;2022-10-17T11:46:33;6.22;;;2.97;;
11608;SDS011;5860;52.018;8.536;2022-10-17T11:51:35;6.93;;;3.35;;
11608;SDS011;5860;52.018;8.536;2022-10-17T11:54:34;5.55;;;2.95;;
11608;SDS011;5860;52.018;8.536;2022-10-17T12:00:15;6.50;;;2.83;;
11608;SDS011;5860;52.018;8.536;2022-10-17T12:08:02;5.50;;;2.50;;
11608;SDS011;5860;52.018;8.536;2022-10-17T12:10:51;5.75;;;3.13;;
11608;SDS011;5860;52.018;8.536;2022-10-17T12:15:56;5.47;;;2.50;;
11608;SDS011;5860;52.018;8.536;2022-10-17T12:18:42;9.02;;;3.15;;
11608;SDS011;5860;52.018;8.536;2022-10-17T12:21:10;5.28;;;2.45;;
11608;SDS011;5860;52.018;8.536;2022-10-17T12:23:37;4.47;;;2.63;;
11608;SDS011;5860;52.018;8.536;2022-10-17T12:26:06;7.00;;;3.40;;
11608;SDS011;5860;52.018;8.536;2022-10-17T12:28:44;5.32;;;3.13;;
11608;SDS011;5860;52.018;8.536;2022-10-17T12:33:55;8.05;;;4.18;;
11608;SDS011;5860;52.018;8.536;2022-10-17T12:46:41;5.82;;;3.50;;
11608;SDS011;5860;52.018;8.536;2022-10-17T12:49:21;5.10;;;3.50;;
11608;SDS011;5860;52.018;8.536;2022-10-17T13:03:05;5.32;;;3.58;;
11608;SDS011;5860;52.018;8.536;2022-10-17T13:05:41;4.10;;;2.95;;
11608;SDS011;5860;52.018;8.536;2022-10-17T13:08:17;8.70;;;3.17;;
11608;SDS011;5860;52.018;8.536;2022-10-17T13:10:47;7.30;;;3.17;;
11608;SDS011;5860;52.018;8.536;2022-10-17T13:13:19;6.13;;;3.50;;
11608;SDS011;5860;52.018;8.536;2022-10-17T13:15:58;5.20;;;3.13;;
11608;SDS011;5860;52.018;8.536;2022-10-17T13:18:27;6.28;;;3.40;;
11608;SDS011;5860;52.018;8.536;2022-10-17T13:21:02;11.65;;;3.65;;
11608;SDS011;5860;52.018;8.536;2022-10-17T13:23:32;5.30;;;3.15;;
11608;SDS011;5860;52.018;8.536;2022-10-17T13:26:17;6.75;;;3.47;;
11608;SDS011;5860;52.018;8.536;2022-10-17T13:28:59;7.93;;;3.67;;
11608;SDS011;5860;52.018;8.536;2022-10-17T13:31:31;11.38;;;3.50;;
11608;SDS011;5860;52.018;8.536;2022-10-17T13:34:01;6.28;;;3.30;;
11608;SDS011;5860;52.018;8.536;2022-10-17T13:36:32;5.10;;;3.22;;
11608;SDS011;5860;52.018;8.536;2022-10-17T13:39:04;7.38;;;3.08;;
11608;SDS011;5860;52.018;8.536;2022-10-17T13:41:40;6.70;;;3.13;;
11608;SDS011;5860;52.018;8.536;2022-10-17T13:44:25;5.60;;;3.20;;
11608;SDS011;5860;52.018;8.536;2022-10-17T13:46:54;4.55;;;3.05;;
11608;SDS011;5860;52.018;8.536;2022-10-17T13:49:32;7.97;;;3.40;;
11608;SDS011;5860;52.018;8.536;2022-10-17T13:52:01;6.15;;;3.20;;
11608;SDS011;5860;52.018;8.536;2022-10-17T13:54:39;8.40;;;3.40;;
11608;SDS011;5860;52.018;8.536;2022-10-17T14:00:10;7.32;;;3.05;;
11608;SDS011;5860;52.018;8.536;2022-10-17T14:02:45;4.88;;;3.20;;
11608;SDS011;5860;52.018;8.536;2022-10-17T14:05:14;6.45;;;2.95;;
11608;SDS011;5860;52.018;8.536;2022-10-17T14:08:00;5.28;;;3.30;;
11608;SDS011;5860;52.018;8.536;2022-10-17T14:10:43;4.40;;;3.13;;
11608;SDS011;5860;52.018;8.536;2022-10-17T14:13:17;6.85;;;3.20;;
11608;SDS011;5860;52.018;8.536;2022-10-17T14:15:45;5.20;;;3.45;;
11608;SDS011;5860;52.018;8.536;2022-10-17T14:18:13;6.65;;;3.75;;
11608;SDS011;5860;52.018;8.536;2022-10-17T14:20:47;5.97;;;3.03;;
11608;SDS011;5860;52.018;8.536;2022-10-17T14:23:36;10.55;;;3.70;;
11608;SDS011;5860;52.018;8.536;2022-10-17T14:28:48;8.52;;;3.63;;
11608;SDS011;5860;52.018;8.536;2022-10-17T14:31:29;4.65;;;3.25;;
11608;SDS011;5860;52.018;8.536;2022-10-17T14:33:59;8.38;;;3.75;;
11608;SDS011;5860;52.018;8.536;2022-10-17T14:36:35;4.63;;;3.35;;
11608;SDS011;5860;52.018;8.536;2022-10-17T14:39:04;7.22;;;3.45;;
11608;SDS011;5860;52.018;8.536;2022-10-17T14:41:41;5.40;;;3.60;;
11608;SDS011;5860;52.018;8.536;2022-10-17T14:44:46;5.18;;;3.28;;
11608;SDS011;5860;52.018;8.536;2022-10-17T14:47:03;8.90;;;3.45;;
11608;SDS011;5860;52.018;8.536;2022-10-17T14:53:01;9.30;;;3.58;;
11608;SDS011;5860;52.018;8.536;2022-10-17T14:55:30;6.60;;;3.58;;
11608;SDS011;5860;52.018;8.536;2022-10-17T14:58:00;7.60;;;3.65;;
11608;SDS011;5860;52.018;8.536;2022-10-17T15:00:27;5.97;;;3.38;;
11608;SDS011;5860;52.018;8.536;2022-10-17T15:02:54;6.05;;;3.60;;
11608;SDS011;5860;52.018;8.536;2022-10-17T15:05:21;8.43;;;3.95;;
11608;SDS011;5860;52.018;8.536;2022-10-17T15:07:49;7.18;;;3.17;;
11608;SDS011;5860;52.018;8.536;2022-10-17T15:10:23;8.32;;;3.60;;
11608;SDS011;5860;52.018;8.536;2022-10-17T15:12:50;12.80;;;3.72;;
11608;SDS011;5860;52.018;8.536;2022-10-17T15:15:35;7.03;;;4.05;;
11608;SDS011;5860;52.018;8.536;2022-10-17T15:18:03;7.15;;;4.63;;
11608;SDS011;5860;52.018;8.536;2022-10-17T15:20:31;9.40;;;3.72;;
11608;SDS011;5860;52.018;8.536;2022-10-17T15:22:59;9.13;;;4.00;;
11608;SDS011;5860;52.018;8.536;2022-10-17T15:25:28;7.65;;;4.28;;
11608;SDS011;5860;52.018;8.536;2022-10-17T15:27:55;6.30;;;4.07;;
11608;SDS011;5860;52.018;8.536;2022-10-17T15:30:27;8.23;;;3.72;;
11608;SDS011;5860;52.018;8.536;2022-10-17T15:32:57;7.07;;;3.80;;
11608;SDS011;5860;52.018;8.536;2022-10-17T15:35:24;8.48;;;3.80;;
11608;SDS011;5860;52.018;8.536;2022-10-17T15:37:52;7.72;;;3.72;;
11608;SDS011;5860;52.018;8.536;2022-10-17T15:40:24;4.85;;;3.67;;
11608;SDS011;5860;52.018;8.536;2022-10-17T15:42:55;7.78;;;4.45;;
11608;SDS011;5860;52.018;8.536;2022-10-17T15:45:23;8.20;;;4.10;;
11608;SDS011;5860;52.018;8.536;2022-10-17T15:47:54;6.78;;;4.20;;
11608;SDS011;5860;52.018;8.536;2022-10-17T15:50:30;8.40;;;4.18;;
11608;SDS011;5860;52.018;8.536;2022-10-17T15:52:57;4.57;;;3.72;;
11608;SDS011;5860;52.018;8.536;2022-10-17T15:55:25;6.85;;;3.88;;
11608;SDS011;5860;52.018;8.536;2022-10-17T15:57:52;5.78;;;3.53;;
11608;SDS011;5860;52.018;8.536;2022-10-17T16:00:20;7.55;;;4.10;;
11608;SDS011;5860;52.018;8.536;2022-10-17T16:02:48;6.10;;;3.80;;
11608;SDS011;5860;52.018;8.536;2022-10-17T16:05:17;12.68;;;4.13;;
11608;SDS011;5860;52.018;8.536;2022-10-17T16:07:48;11.07;;;4.00;;
11608;SDS011;5860;52.018;8.536;2022-10-17T16:10:16;7.65;;;3.88;;
11608;SDS011;5860;52.018;8.536;2022-10-17T16:12:43;8.00;;;4.30;;
11608;SDS011;5860;52.018;8.536;2022-10-17T16:15:15;6.13;;;3.45;;
11608;SDS011;5860;52.018;8.536;2022-10-17T16:17:50;7.03;;;3.58;;
11608;SDS011;5860;52.018;8.536;2022-10-17T16:20:18;7.55;;;3.67;;
11608;SDS011;5860;52.018;8.536;2022-10-17T16:22:46;6.15;;;4.10;;
11608;SDS011;5860;52.018;8.536;2022-10-17T16:27:46;7.78;;;4.00;;
11608;SDS011;5860;52.018;8.536;2022-10-17T16:30:14;7.43;;;3.97;;
11608;SDS011;5860;52.018;8.536;2022-10-17T16:32:42;8.13;;;4.25;;
11608;SDS011;5860;52.018;8.536;2022-10-17T16:35:10;8.40;;;3.70;;
11608;SDS011;5860;52.018;8.536;2022-10-17T16:37:43;6.28;;;4.00;;
11608;SDS011;5860;52.018;8.536;2022-10-17T16:40:10;7.45;;;3.95;;
11608;SDS011;5860;52.018;8.536;2022-10-17T16:42:37;6.32;;;3.25;;
11608;SDS011;5860;52.018;8.536;2022-10-17T16:45:04;6.55;;;4.25;;
11608;SDS011;5860;52.018;8.536;2022-10-17T16:47:31;5.43;;;3.90;;
11608;SDS011;5860;52.018;8.536;2022-10-17T16:49:58;7.88;;;4.70;;
11608;SDS011;5860;52.018;8.536;2022-10-17T16:52:25;7.75;;;4.50;;
11608;SDS011;5860;52.018;8.536;2022-10-17T16:54:52;10.38;;;4.30;;
11608;SDS011;5860;52.018;8.536;2022-10-17T16:57:19;9.75;;;4.75;;
11608;SDS011;5860;52.018;8.536;2022-10-17T16:59:45;7.28;;;4.88;;
11608;SDS011;5860;52.018;8.536;2022-10-17T17:02:12;11.90;;;5.25;;
11608;SDS011;5860;52.018;8.536;2022-10-17T17:04:45;8.52;;;5.00;;
11608;SDS011;5860;52.018;8.536;2022-10-17T17:07:12;8.47;;;4.83;;
11608;SDS011;5860;52.018;8.536;2022-10-17T17:09:39;6.97;;;5.10;;
11608;SDS011;5860;52.018;8.536;2022-10-17T17:12:06;6.93;;;4.90;;
11608;SDS011;5860;52.018;8.536;2022-10-17T17:14:33;9.40;;;5.20;;
11608;SDS011;5860;52.018;8.536;2022-10-17T17:17:00;8.77;;;5.63;;
11608;SDS011;5860;52.018;8.536;2022-10-17T17:19:27;8.33;;;5.20;;
11608;SDS011;5860;52.018;8.536;2022-10-17T17:21:54;10.25;;;6.00;;